createdAt,value
2022-12-15T00:03:35.935Z,1005.3
2022-12-15T00:09:31.015Z,1005.3
2022-12-15T00:14:57.289Z,1005.5
2022-12-15T00:20:07.359Z,1005.5
2022-12-15T00:25:56.854Z,1005.5
2022-12-15T00:31:16.119Z,1005.3
2022-12-15T00:36:57.055Z,1005.6
2022-12-15T00:42:20.545Z,1005.7
2022-12-15T00:47:50.116Z,1005.5
2022-12-15T00:53:41.451Z,1005.5
2022-12-15T00:58:53.944Z,1005.4
2022-12-15T01:04:28.399Z,1005.5
2022-12-15T01:10:05.091Z,1005.5
2022-12-15T01:15:47.584Z,1005.7
2022-12-15T01:21:25.418Z,1005.6
2022-12-15T01:26:49.334Z,1005.6
2022-12-15T01:32:18.843Z,1005.6
2022-12-15T01:37:59.840Z,1005.7
2022-12-15T01:43:10.874Z,1005.6
2022-12-15T01:48:54.873Z,1005.5
2022-12-15T01:54:14.252Z,1005.7
2022-12-15T02:00:09.140Z,1005.7
2022-12-15T02:05:36.549Z,1005.8
2022-12-15T02:10:45.007Z,1005.8
2022-12-15T02:16:39.658Z,1005.8
2022-12-15T02:21:57.306Z,1006
2022-12-15T02:27:39.671Z,1005.9
2022-12-15T02:33:04.097Z,1005.8
2022-12-15T02:38:41.314Z,1005.8
2022-12-15T02:44:18.299Z,1005.7
2022-12-15T02:49:36.176Z,1005.8
2022-12-15T02:55:13.265Z,1005.9
2022-12-15T03:00:44.331Z,1005.9
2022-12-15T03:06:12.222Z,1005.9
2022-12-15T03:11:38.581Z,1005.7
2022-12-15T03:17:36.372Z,1006
2022-12-15T03:23:06.884Z,1005.9
2022-12-15T03:28:42.213Z,1006.1
2022-12-15T03:33:54.261Z,1006.2
2022-12-15T03:39:35.050Z,1006.2
2022-12-15T03:45:04.939Z,1006.3
2022-12-15T03:50:21.958Z,1006.3
2022-12-15T03:56:20.011Z,1006.3
2022-12-15T04:01:42.950Z,1006.3
2022-12-15T04:07:06.352Z,1006.3
2022-12-15T04:12:53.240Z,1006.4
2022-12-15T04:18:09.283Z,1006.5
2022-12-15T04:23:36.376Z,1006.6
2022-12-15T04:29:28.620Z,1006.6
2022-12-15T04:34:43.987Z,1006.5
2022-12-15T04:40:35.453Z,1006.4
2022-12-15T04:46:11.211Z,1006.5
2022-12-15T04:51:37.108Z,1006.7
2022-12-15T04:57:17.055Z,1006.6
2022-12-15T05:02:23.129Z,1006.6
2022-12-15T05:08:00.880Z,1006.7
2022-12-15T05:13:42.465Z,1006.7
2022-12-15T05:19:01.330Z,1006.7
2022-12-15T05:24:50.765Z,1006.7
2022-12-15T05:30:11.815Z,1006.8
2022-12-15T05:35:36.982Z,1006.6
2022-12-15T05:41:32.281Z,1006.9
2022-12-15T05:47:06.990Z,1006.8
2022-12-15T05:52:23.366Z,1006.8
2022-12-15T05:58:04.194Z,1006.8
2022-12-15T06:08:56.972Z,1007
2022-12-15T06:14:41.785Z,1007
2022-12-15T06:20:15.697Z,1006.9
2022-12-15T06:25:57.467Z,1007
2022-12-15T06:31:01.418Z,1006.9
2022-12-15T06:36:52.543Z,1007
2022-12-15T06:42:09.475Z,1007.1
2022-12-15T06:47:38.575Z,1007.3
2022-12-15T06:53:12.225Z,1007.4
2022-12-15T06:58:56.288Z,1007.5
2022-12-15T07:04:22.394Z,1007.7
2022-12-15T07:09:55.807Z,1007.8
2022-12-15T07:15:24.113Z,1007.9
2022-12-15T07:21:13.171Z,1008.1
2022-12-15T07:26:33.686Z,1007.9
2022-12-15T07:32:25.791Z,1007.8
2022-12-15T07:37:34.070Z,1008
2022-12-15T07:43:15.490Z,1008.1
2022-12-15T07:48:57.184Z,1008.1
2022-12-15T07:54:14.010Z,1008.2
2022-12-15T07:59:51.515Z,1008.2
2022-12-15T08:05:21.047Z,1008.3
2022-12-15T08:11:05.837Z,1008.2
2022-12-15T08:16:41.451Z,1008.1
2022-12-15T08:21:50.425Z,1008.1
2022-12-15T08:27:27.608Z,1008.1
2022-12-15T08:33:10.125Z,1008.3
2022-12-15T08:38:37.387Z,1008.3
2022-12-15T08:44:14.332Z,1008
2022-12-15T08:49:33.980Z,1008
2022-12-15T08:55:07.965Z,1007.9
2022-12-15T09:00:59.396Z,1007.9
2022-12-15T09:06:12.534Z,1008.1
2022-12-15T09:11:57.888Z,1008.1
2022-12-15T09:17:27.740Z,1008.2
2022-12-15T09:23:10.340Z,1008.4
2022-12-15T09:28:24.544Z,1008.3
2022-12-15T09:34:03.980Z,1008.4
2022-12-15T09:39:48.666Z,1008.5
2022-12-15T09:45:21.339Z,1008.5
2022-12-15T09:50:40.709Z,1008.4
2022-12-15T09:56:12.388Z,1008.3
2022-12-15T10:01:35.146Z,1008
2022-12-15T10:07:21.219Z,1008
2022-12-15T10:12:50.337Z,1008
2022-12-15T10:18:16.308Z,1008.1
2022-12-15T10:24:07.560Z,1008
2022-12-15T10:29:25.578Z,1008.1
2022-12-15T10:35:00.280Z,1008.1
2022-12-15T10:40:49.939Z,1007.9
2022-12-15T10:45:57.862Z,1007.8
2022-12-15T10:51:36.793Z,1007.8
2022-12-15T10:57:24.658Z,1007.6
2022-12-15T11:02:44.768Z,1007.5
2022-12-15T11:08:02.363Z,1007.5
2022-12-15T11:14:01.221Z,1007.3
2022-12-15T11:19:31.902Z,1007.2
2022-12-15T11:25:02.409Z,1007.1
2022-12-15T11:30:15.656Z,1006.9
2022-12-15T11:36:03.862Z,1006.8
2022-12-15T11:41:24.041Z,1006.9
2022-12-15T11:47:14.846Z,1006.7
2022-12-15T11:52:32.081Z,1006.7
2022-12-15T11:57:58.787Z,1006.6
2022-12-15T12:03:55.808Z,1006.4
2022-12-15T12:09:15.452Z,1006.3
2022-12-15T12:14:35.378Z,1006.2
2022-12-15T12:20:26.059Z,1006.2
2022-12-15T12:26:02.888Z,1006
2022-12-15T12:31:22.072Z,1006
2022-12-15T12:37:01.870Z,1006
2022-12-15T12:42:35.431Z,1005.9
2022-12-15T12:48:10.743Z,1005.9
2022-12-15T12:53:28.858Z,1005.7
2022-12-15T12:59:05.739Z,1005.6
2022-12-15T13:04:48.992Z,1005.3
2022-12-15T13:10:26.218Z,1005.1
2022-12-15T13:15:46.617Z,1005.1
2022-12-15T13:21:07.553Z,1005.1
2022-12-15T13:26:49.444Z,1004.8
2022-12-15T13:32:32.796Z,1004.8
2022-12-15T13:37:43.320Z,1004.8
2022-12-15T13:43:39.739Z,1004.9
2022-12-15T13:48:56.113Z,1005
2022-12-15T13:54:35.195Z,1004.9
2022-12-15T13:59:55.595Z,1005
2022-12-15T14:05:39.243Z,1005
2022-12-15T14:11:51.120Z,1005.2
2022-12-15T14:16:33.849Z,1005.1
2022-12-15T14:22:10.679Z,1005.1
2022-12-15T14:27:56.984Z,1005.1
2022-12-15T14:33:09.234Z,1005
2022-12-15T14:38:37.530Z,1004.9
2022-12-15T14:44:30.881Z,1005
2022-12-15T14:49:51.178Z,1005
2022-12-15T14:55:23.626Z,1005
2022-12-15T15:00:53.110Z,1004.7
2022-12-15T15:06:24.762Z,1004.9
2022-12-15T15:11:57.825Z,1004.9
2022-12-15T15:17:36.186Z,1005
2022-12-15T15:23:18.837Z,1005
2022-12-15T15:28:37.206Z,1005
2022-12-15T15:34:31.813Z,1005.2
2022-12-15T15:40:00.174Z,1005.3
2022-12-15T15:45:27.816Z,1005.1
2022-12-15T15:50:48.919Z,1005.1
2022-12-15T15:56:27.468Z,1005.1
2022-12-15T16:01:55.075Z,1004.9
2022-12-15T16:07:33.794Z,1004.9
2022-12-15T16:12:56.260Z,1004.9
2022-12-15T16:18:37.268Z,1004.9
2022-12-15T16:24:24.168Z,1004.9
2022-12-15T16:29:44.879Z,1004.8
2022-12-15T16:35:16.872Z,1004.7
2022-12-15T16:40:57.091Z,1004.6
2022-12-15T16:46:32.007Z,1004.5
2022-12-15T16:52:01.293Z,1004.5
2022-12-15T16:57:22.929Z,1004.5
2022-12-15T17:03:09.669Z,1004.4
2022-12-15T17:08:44.698Z,1004.6
2022-12-15T17:13:56.816Z,1004.5
2022-12-15T17:19:48.186Z,1004.5
2022-12-15T17:25:12.675Z,1004.7
2022-12-15T17:30:39.505Z,1004.6
2022-12-15T17:36:09.842Z,1004.7
2022-12-15T17:41:58.487Z,1004.7
2022-12-15T17:47:03.553Z,1004.7
2022-12-15T17:52:59.221Z,1004.7
2022-12-15T17:58:32.899Z,1004.6
2022-12-15T18:03:50.229Z,1004.5
2022-12-15T18:09:20.023Z,1004.6
2022-12-15T18:14:47.258Z,1004.4
2022-12-15T18:20:20.510Z,1004.4
2022-12-15T18:26:13.916Z,1004.4
2022-12-15T18:31:50.641Z,1004.4
2022-12-15T18:37:12.739Z,1004.2
2022-12-15T18:42:47.250Z,1004.3
2022-12-15T18:48:00.231Z,1004.3
2022-12-15T18:53:52.530Z,1004.4
2022-12-15T18:59:28.259Z,1004.4
2022-12-15T19:04:45.153Z,1004.6
2022-12-15T19:10:34.230Z,1004.7
2022-12-15T19:15:47.920Z,1004.8
2022-12-15T19:21:15.351Z,1004.8
2022-12-15T19:26:52.607Z,1004.7
2022-12-15T19:32:23.273Z,1004.7
2022-12-15T19:38:08.221Z,1004.9
2022-12-15T19:43:22.920Z,1004.9
2022-12-15T19:49:21.691Z,1004.9
2022-12-15T19:54:27.849Z,1005
2022-12-15T20:00:22.932Z,1004.9
2022-12-15T20:05:33.350Z,1005
2022-12-15T20:11:26.426Z,1005.1
2022-12-15T20:16:56.868Z,1005.1
2022-12-15T20:22:14.623Z,1005
2022-12-15T20:27:52.707Z,1005.1
2022-12-15T20:33:34.787Z,1004.9
2022-12-15T20:38:56.824Z,1005
2022-12-15T20:44:19.021Z,1005.1
2022-12-15T20:50:12.129Z,1005.1
2022-12-15T20:55:39.428Z,1005.1
2022-12-15T21:01:04.778Z,1005.2
2022-12-15T21:06:34.863Z,1005.2
2022-12-15T21:12:12.655Z,1005.2
2022-12-15T21:18:11.189Z,1005.3
2022-12-15T21:23:22.423Z,1005.3
2022-12-15T21:28:49.955Z,1005.4
2022-12-15T21:34:19.132Z,1005.4
2022-12-15T21:39:53.833Z,1005.4
2022-12-15T21:45:13.607Z,1005.4
2022-12-15T21:51:02.683Z,1005.4
2022-12-15T21:56:29.382Z,1005.5
2022-12-15T22:02:07.528Z,1005.6
2022-12-15T22:07:31.213Z,1005.6
2022-12-15T22:12:59.711Z,1005.5
2022-12-15T22:18:53.635Z,1005.6
2022-12-15T22:24:27.222Z,1005.6
2022-12-15T22:29:39.642Z,1005.7
2022-12-15T22:35:29.908Z,1005.8
2022-12-15T22:40:58.421Z,1005.9
2022-12-15T22:46:09.377Z,1005.9
2022-12-15T22:51:41.441Z,1005.9
2022-12-15T22:57:33.003Z,1006
2022-12-15T23:03:10.995Z,1005.9
2022-12-15T23:08:33.129Z,1006
2022-12-15T23:13:52.842Z,1005.9
2022-12-15T23:19:48.148Z,1005.9
2022-12-15T23:25:17.985Z,1006
2022-12-15T23:30:51.243Z,1005.9
2022-12-15T23:36:09.359Z,1006.1
2022-12-15T23:41:53.522Z,1006.1
2022-12-15T23:47:22.107Z,1006.1
2022-12-15T23:53:04.330Z,1005.9
2022-12-15T23:58:23.930Z,1006
